createdAt,value
2023-02-09T00:02:03.591Z,66.10
2023-02-09T00:04:27.185Z,65.80
2023-02-09T00:06:50.494Z,66.30
2023-02-09T00:09:13.908Z,67.20
2023-02-09T00:11:56.552Z,66.60
2023-02-09T00:14:22.268Z,65.60
2023-02-09T00:16:46.021Z,64.80
2023-02-09T00:19:09.387Z,64.70
2023-02-09T00:21:33.110Z,65.10
2023-02-09T00:23:56.363Z,64.60
2023-02-09T00:26:19.661Z,64.20
2023-02-09T00:28:44.908Z,64.90
2023-02-09T00:31:10.698Z,66.70
2023-02-09T00:33:37.787Z,65.90
2023-02-09T00:36:01.124Z,66.60
2023-02-09T00:38:24.365Z,65.40
2023-02-09T00:40:50.044Z,66.20
2023-02-09T00:43:13.527Z,66.10
2023-02-09T00:45:38.198Z,68.20
2023-02-09T00:48:01.866Z,69.00
2023-02-09T00:50:26.885Z,67.40
2023-02-09T00:52:50.185Z,66.70
2023-02-09T00:55:13.483Z,68.60
2023-02-09T00:57:37.108Z,68.30
2023-02-09T01:00:00.513Z,67.00
2023-02-09T01:02:25.231Z,66.20
2023-02-09T01:04:49.687Z,65.80
2023-02-09T01:07:13.017Z,66.70
2023-02-09T01:09:36.459Z,66.30
2023-02-09T01:12:02.187Z,66.70
2023-02-09T01:14:25.489Z,66.10
2023-02-09T01:16:48.983Z,65.10
2023-02-09T01:19:14.851Z,65.80
2023-02-09T01:21:38.156Z,65.40
2023-02-09T01:24:01.556Z,67.50
2023-02-09T01:26:25.054Z,66.20
2023-02-09T01:28:51.468Z,65.70
2023-02-09T01:31:26.295Z,66.20
2023-02-09T01:33:49.822Z,66.90
2023-02-09T01:36:14.507Z,66.20
2023-02-09T01:38:37.788Z,65.70
2023-02-09T01:41:01.124Z,65.80
2023-02-09T01:43:24.463Z,66.00
2023-02-09T01:45:50.162Z,66.40
2023-02-09T01:48:15.953Z,66.90
2023-02-09T01:50:45.415Z,68.00
2023-02-09T01:53:10.714Z,67.60
2023-02-09T01:55:37.469Z,67.20
2023-02-09T01:58:05.944Z,67.10
2023-02-09T02:00:29.451Z,66.70
2023-02-09T02:02:57.425Z,66.80
2023-02-09T02:05:22.621Z,66.70
2023-02-09T02:07:52.951Z,66.80
2023-02-09T02:10:17.753Z,68.10
2023-02-09T02:12:41.532Z,68.10
2023-02-09T02:15:08.936Z,68.30
2023-02-09T02:17:51.176Z,70.20
2023-02-09T02:21:11.525Z,69.50
2023-02-09T02:23:43.148Z,68.50
2023-02-09T02:26:54.758Z,68.50
2023-02-09T02:30:04.505Z,69.10
2023-02-09T02:32:57.170Z,70.80
2023-02-09T02:35:27.957Z,71.40
2023-02-09T02:38:01.439Z,70.80
2023-02-09T02:40:40.079Z,70.20
2023-02-09T02:43:12.573Z,71.60
2023-02-09T02:45:44.750Z,71.50
2023-02-09T02:48:24.226Z,71.40
2023-02-09T02:50:54.815Z,70.10
2023-02-09T02:53:20.104Z,70.50
2023-02-09T02:55:45.609Z,70.70
2023-02-09T02:58:12.820Z,70.90
2023-02-09T03:00:41.695Z,71.30
2023-02-09T03:03:11.254Z,72.10
2023-02-09T03:05:35.193Z,73.20
2023-02-09T03:07:58.502Z,73.50
2023-02-09T03:10:32.600Z,72.90
2023-02-09T03:13:09.642Z,74.00
2023-02-09T03:15:45.428Z,74.20
2023-02-09T03:18:22.253Z,75.20
2023-02-09T03:20:53.786Z,75.50
2023-02-09T03:23:33.753Z,75.60
2023-02-09T03:25:58.017Z,75.60
2023-02-09T03:28:28.536Z,76.00
2023-02-09T03:30:53.452Z,76.40
2023-02-09T03:33:24.499Z,76.80
2023-02-09T03:35:51.360Z,76.40
2023-02-09T03:38:14.666Z,76.60
2023-02-09T03:40:38.128Z,77.10
2023-02-09T03:43:01.390Z,77.10
2023-02-09T03:45:24.770Z,77.20
2023-02-09T03:47:48.522Z,77.70
2023-02-09T03:50:13.384Z,77.20
2023-02-09T03:52:36.928Z,77.00
2023-02-09T03:55:00.336Z,76.50
2023-02-09T03:57:23.653Z,76.00
2023-02-09T03:59:46.875Z,77.20
2023-02-09T04:02:11.305Z,77.10
2023-02-09T04:04:34.736Z,75.70
2023-02-09T04:07:00.252Z,75.50
2023-02-09T04:09:23.820Z,74.50
2023-02-09T04:11:47.496Z,74.90
2023-02-09T04:14:11.182Z,74.70
2023-02-09T04:16:34.591Z,75.00
2023-02-09T04:18:58.176Z,74.10
2023-02-09T04:21:22.186Z,74.10
2023-02-09T04:23:48.248Z,74.00
2023-02-09T04:26:11.743Z,73.90
2023-02-09T04:28:34.972Z,74.20
2023-02-09T04:30:58.915Z,73.50
2023-02-09T04:33:22.354Z,73.70
2023-02-09T04:35:45.737Z,73.00
2023-02-09T04:38:09.073Z,73.10
2023-02-09T04:40:33.822Z,73.60
2023-02-09T04:42:57.310Z,73.60
2023-02-09T04:45:20.718Z,73.50
2023-02-09T04:47:44.021Z,73.80
2023-02-09T04:50:08.047Z,74.20
2023-02-09T04:52:31.327Z,73.70
2023-02-09T04:54:54.580Z,74.20
2023-02-09T04:57:33.178Z,73.80
2023-02-09T04:59:56.480Z,74.00
2023-02-09T05:02:20.553Z,74.00
2023-02-09T05:04:43.817Z,74.10
2023-02-09T05:07:07.094Z,74.20
2023-02-09T05:09:31.058Z,74.90
2023-02-09T05:11:54.357Z,75.40
2023-02-09T05:14:19.080Z,75.30
2023-02-09T05:16:42.596Z,75.50
2023-02-09T05:19:05.943Z,74.60
2023-02-09T05:21:29.270Z,75.10
2023-02-09T05:23:52.597Z,75.30
2023-02-09T05:26:15.966Z,75.50
2023-02-09T05:28:39.296Z,75.20
2023-02-09T05:31:04.192Z,75.10
2023-02-09T05:33:27.703Z,75.60
2023-02-09T05:35:52.675Z,75.90
2023-02-09T05:38:16.176Z,76.40
2023-02-09T05:40:39.490Z,75.40
2023-02-09T05:43:03.447Z,75.30
2023-02-09T05:45:27.022Z,75.30
2023-02-09T05:47:51.653Z,75.80
2023-02-09T05:50:15.081Z,75.60
2023-02-09T05:52:38.400Z,75.20
2023-02-09T05:55:01.693Z,75.70
2023-02-09T05:57:24.956Z,75.70
2023-02-09T05:59:48.371Z,76.00
2023-02-09T06:02:12.452Z,76.10
2023-02-09T06:04:37.589Z,76.40
2023-02-09T06:07:01.040Z,75.60
2023-02-09T06:09:24.667Z,75.80
2023-02-09T06:11:48.319Z,76.20
2023-02-09T06:14:12.406Z,76.90
2023-02-09T06:16:35.623Z,76.40
2023-02-09T06:18:59.032Z,76.70
2023-02-09T06:21:23.889Z,77.00
2023-02-09T06:23:47.240Z,77.60
2023-02-09T06:26:12.477Z,77.40
2023-02-09T06:28:36.239Z,77.10
2023-02-09T06:30:59.666Z,76.90
2023-02-09T06:33:23.127Z,76.90
2023-02-09T06:35:48.593Z,77.00
2023-02-09T06:38:14.372Z,77.10
2023-02-09T06:40:37.935Z,77.30
2023-02-09T06:43:01.134Z,76.80
2023-02-09T06:45:24.473Z,77.10
2023-02-09T06:47:48.299Z,76.90
2023-02-09T06:50:13.708Z,77.60
2023-02-09T06:52:37.262Z,77.20
2023-02-09T06:55:01.954Z,77.40
2023-02-09T06:57:25.307Z,77.30
2023-02-09T06:59:49.103Z,77.40
2023-02-09T07:02:12.645Z,77.60
2023-02-09T07:04:35.941Z,77.50
2023-02-09T07:06:59.185Z,78.00
2023-02-09T07:09:22.495Z,77.90
2023-02-09T07:11:47.080Z,77.90
2023-02-09T07:14:10.351Z,78.10
2023-02-09T07:16:33.740Z,78.20
2023-02-09T07:18:58.858Z,77.60
2023-02-09T07:21:23.936Z,77.80
2023-02-09T07:23:47.954Z,77.90
2023-02-09T07:26:16.066Z,77.40
2023-02-09T07:28:40.780Z,77.20
2023-02-09T07:31:07.108Z,77.50
2023-02-09T07:33:30.671Z,77.50
2023-02-09T07:35:53.959Z,77.00
2023-02-09T07:38:17.264Z,76.80
2023-02-09T07:40:45.761Z,76.70
2023-02-09T07:43:09.494Z,76.90
2023-02-09T07:45:35.326Z,76.10
2023-02-09T07:47:58.606Z,76.10
2023-02-09T07:50:21.891Z,76.10
2023-02-09T07:52:45.129Z,75.90
2023-02-09T07:55:09.239Z,76.10
2023-02-09T07:57:32.980Z,75.80
2023-02-09T07:59:56.168Z,75.60
2023-02-09T08:02:29.759Z,75.40
2023-02-09T08:04:54.111Z,74.90
2023-02-09T08:07:17.485Z,73.60
2023-02-09T08:09:40.833Z,74.10
2023-02-09T08:12:07.731Z,74.10
2023-02-09T08:14:39.699Z,74.20
2023-02-09T08:17:24.204Z,74.40
2023-02-09T08:19:53.443Z,73.30
2023-02-09T08:22:16.820Z,73.20
2023-02-09T08:24:40.182Z,73.80
2023-02-09T08:27:03.829Z,72.80
2023-02-09T08:29:27.250Z,72.60
2023-02-09T08:31:50.590Z,73.70
2023-02-09T08:34:14.665Z,73.20
2023-02-09T08:36:41.418Z,71.90
2023-02-09T08:39:07.188Z,71.90
2023-02-09T08:41:30.520Z,72.00
2023-02-09T08:43:53.738Z,72.00
2023-02-09T08:46:17.656Z,72.40
2023-02-09T08:48:45.599Z,71.10
2023-02-09T08:51:12.156Z,70.80
2023-02-09T08:53:37.030Z,71.20
2023-02-09T08:56:00.479Z,70.80
2023-02-09T08:58:24.065Z,71.90
2023-02-09T09:00:47.682Z,71.00
2023-02-09T09:03:11.350Z,70.20
2023-02-09T09:05:36.294Z,69.60
2023-02-09T09:07:59.664Z,70.40
2023-02-09T09:10:24.376Z,70.00
2023-02-09T09:12:47.633Z,69.80
2023-02-09T09:15:11.520Z,69.20
2023-02-09T09:17:34.817Z,70.30
2023-02-09T09:19:59.354Z,69.80
2023-02-09T09:22:22.711Z,69.60
2023-02-09T09:24:46.037Z,69.30
2023-02-09T09:27:12.452Z,68.80
2023-02-09T09:29:36.025Z,68.60
2023-02-09T09:31:59.379Z,69.60
2023-02-09T09:34:22.770Z,68.20
2023-02-09T09:36:46.050Z,68.10
2023-02-09T09:39:09.361Z,67.00
2023-02-09T09:41:37.945Z,67.20
2023-02-09T09:44:04.409Z,66.30
2023-02-09T09:46:36.462Z,66.70
2023-02-09T09:49:00.873Z,65.70
2023-02-09T09:51:38.055Z,65.40
2023-02-09T09:54:04.442Z,65.90
2023-02-09T09:56:33.645Z,66.30
2023-02-09T09:58:57.998Z,65.60
2023-02-09T10:01:23.385Z,65.00
2023-02-09T10:03:47.121Z,64.40
2023-02-09T10:06:16.744Z,64.80
2023-02-09T10:08:45.827Z,65.20
2023-02-09T10:11:13.216Z,63.70
2023-02-09T10:13:41.359Z,63.40
2023-02-09T10:16:10.980Z,62.80
2023-02-09T10:18:38.170Z,62.40
2023-02-09T10:21:06.554Z,61.50
2023-02-09T10:23:39.644Z,62.50
2023-02-09T10:26:06.246Z,61.70
2023-02-09T10:28:34.145Z,62.30
2023-02-09T10:31:01.101Z,60.20
2023-02-09T10:33:24.618Z,60.30
2023-02-09T10:35:54.931Z,60.60
2023-02-09T10:38:21.556Z,60.40
2023-02-09T10:40:47.523Z,59.10
2023-02-09T10:43:23.868Z,59.60
2023-02-09T10:45:54.139Z,60.00
2023-02-09T10:48:21.301Z,59.60
2023-02-09T10:50:53.801Z,60.30
2023-02-09T10:53:23.813Z,60.10
2023-02-09T10:55:47.751Z,58.50
2023-02-09T10:58:24.895Z,59.30
2023-02-09T11:00:55.009Z,59.30
2023-02-09T11:03:21.674Z,59.50
2023-02-09T11:05:47.735Z,59.80
2023-02-09T11:08:22.389Z,59.00
2023-02-09T11:10:59.583Z,58.90
2023-02-09T11:13:26.637Z,58.00
2023-02-09T11:16:14.885Z,58.70
2023-02-09T11:18:38.985Z,57.90
2023-02-09T11:21:09.046Z,58.30
2023-02-09T11:23:44.562Z,59.10
2023-02-09T11:26:17.021Z,58.50
2023-02-09T11:28:54.328Z,59.40
2023-02-09T11:31:46.432Z,59.60
2023-02-09T11:34:29.516Z,59.90
2023-02-09T11:37:04.946Z,60.50
2023-02-09T11:39:42.176Z,60.40
2023-02-09T11:42:29.415Z,60.00
2023-02-09T11:44:57.997Z,59.70
2023-02-09T11:47:27.226Z,59.50
2023-02-09T11:49:54.033Z,59.10
2023-02-09T11:52:20.328Z,59.90
2023-02-09T11:54:49.552Z,60.30
2023-02-09T11:57:22.871Z,59.60
2023-02-09T11:59:57.076Z,59.70
2023-02-09T12:02:37.562Z,59.40
2023-02-09T12:05:03.147Z,60.00
2023-02-09T12:07:36.586Z,59.70
2023-02-09T12:10:13.901Z,59.40
2023-02-09T12:12:45.824Z,58.60
2023-02-09T12:15:17.214Z,58.90
2023-02-09T12:17:47.315Z,58.90
2023-02-09T12:20:28.870Z,59.50
2023-02-09T12:23:07.637Z,59.00
2023-02-09T12:25:51.166Z,58.40
2023-02-09T12:28:20.014Z,59.40
2023-02-09T12:31:25.279Z,58.30
2023-02-09T12:34:14.473Z,57.70
2023-02-09T12:36:37.862Z,58.00
2023-02-09T12:39:06.230Z,58.70
2023-02-09T12:41:52.703Z,57.80
2023-02-09T12:44:39.533Z,57.80
2023-02-09T12:47:02.962Z,55.50
2023-02-09T12:49:35.611Z,55.00
2023-02-09T12:52:18.008Z,54.40
2023-02-09T12:54:51.383Z,54.70
2023-02-09T12:57:55.750Z,54.60
2023-02-09T13:00:43.964Z,56.00
2023-02-09T13:03:14.290Z,55.90
2023-02-09T13:05:44.556Z,55.30
2023-02-09T13:08:27.149Z,56.20
2023-02-09T13:10:57.724Z,55.30
2023-02-09T13:13:35.378Z,55.50
2023-02-09T13:16:49.787Z,54.10
2023-02-09T13:19:47.972Z,55.00
2023-02-09T13:22:28.727Z,56.30
2023-02-09T13:24:59.930Z,56.30
2023-02-09T13:27:25.581Z,55.10
2023-02-09T13:29:57.095Z,55.40
2023-02-09T13:32:36.285Z,55.50
2023-02-09T13:35:11.681Z,54.90
2023-02-09T13:37:44.030Z,55.00
2023-02-09T13:40:18.802Z,55.50
2023-02-09T13:42:55.344Z,55.90
2023-02-09T13:45:21.173Z,56.50
2023-02-09T13:47:44.996Z,56.30
2023-02-09T13:50:16.418Z,54.70
2023-02-09T13:52:40.381Z,55.00
2023-02-09T13:55:12.910Z,54.60
2023-02-09T13:57:40.680Z,54.30
2023-02-09T14:00:13.823Z,55.00
2023-02-09T14:02:48.473Z,55.20
2023-02-09T14:05:11.956Z,53.30
2023-02-09T14:07:38.136Z,54.70
2023-02-09T14:10:07.076Z,55.20
2023-02-09T14:12:55.757Z,54.80
2023-02-09T14:15:41.841Z,53.40
2023-02-09T14:18:30.168Z,51.30
2023-02-09T14:21:14.241Z,50.10
2023-02-09T14:23:37.976Z,50.00
2023-02-09T14:26:06.615Z,50.00
2023-02-09T14:28:29.966Z,49.80
2023-02-09T14:30:53.358Z,51.30
2023-02-09T14:33:25.244Z,49.60
2023-02-09T14:35:56.940Z,49.90
2023-02-09T14:38:37.788Z,51.00
2023-02-09T14:41:01.070Z,48.80
2023-02-09T14:43:27.193Z,48.80
2023-02-09T14:46:01.010Z,49.00
2023-02-09T14:48:27.980Z,49.20
2023-02-09T14:50:54.782Z,49.70
2023-02-09T14:53:19.258Z,49.90
2023-02-09T14:55:44.280Z,50.10
2023-02-09T14:58:17.389Z,50.40
2023-02-09T15:00:40.707Z,50.90
2023-02-09T15:03:04.344Z,51.50
2023-02-09T15:05:30.320Z,51.20
2023-02-09T15:07:58.254Z,51.20
2023-02-09T15:10:27.608Z,51.50
2023-02-09T15:12:51.022Z,51.90
2023-02-09T15:15:17.992Z,52.60
2023-02-09T15:17:41.295Z,53.90
2023-02-09T15:20:04.771Z,50.40
2023-02-09T15:22:29.468Z,50.60
2023-02-09T15:24:54.705Z,51.10
2023-02-09T15:27:27.051Z,51.40
2023-02-09T15:29:50.748Z,51.80
2023-02-09T15:32:17.223Z,51.70
2023-02-09T15:34:40.632Z,52.70
2023-02-09T15:37:03.925Z,52.00
2023-02-09T15:39:31.382Z,52.70
2023-02-09T15:42:12.079Z,53.80
2023-02-09T15:44:52.952Z,53.30
2023-02-09T15:47:33.720Z,54.10
2023-02-09T15:49:57.027Z,53.80
2023-02-09T15:52:20.626Z,53.70
2023-02-09T15:54:45.995Z,53.60
2023-02-09T15:57:12.519Z,54.20
2023-02-09T15:59:35.978Z,54.20
2023-02-09T16:02:00.367Z,53.60
2023-02-09T16:04:23.886Z,54.20
2023-02-09T16:06:52.261Z,55.40
2023-02-09T16:09:20.746Z,55.70
2023-02-09T16:11:45.648Z,55.40
2023-02-09T16:14:17.251Z,54.80
2023-02-09T16:16:40.688Z,56.40
2023-02-09T16:19:03.988Z,56.00
2023-02-09T16:21:30.699Z,55.70
2023-02-09T16:23:55.859Z,55.60
2023-02-09T16:26:21.042Z,56.50
2023-02-09T16:28:47.034Z,56.40
2023-02-09T16:31:11.409Z,56.90
2023-02-09T16:33:35.463Z,57.40
2023-02-09T16:36:02.708Z,57.20
2023-02-09T16:38:27.764Z,57.70
2023-02-09T16:40:51.692Z,57.40
2023-02-09T16:43:15.763Z,57.30
2023-02-09T16:45:44.695Z,57.80
2023-02-09T16:48:20.813Z,58.40
2023-02-09T16:50:48.172Z,58.50
2023-02-09T16:53:19.542Z,58.50
2023-02-09T16:55:43.211Z,59.20
2023-02-09T16:58:07.001Z,59.30
2023-02-09T17:00:36.167Z,59.30
2023-02-09T17:03:07.488Z,60.00
2023-02-09T17:05:34.879Z,60.20
2023-02-09T17:08:03.398Z,60.30
2023-02-09T17:10:29.750Z,62.20
2023-02-09T17:12:53.833Z,62.20
2023-02-09T17:15:29.445Z,63.20
2023-02-09T17:17:57.409Z,63.30
2023-02-09T17:20:25.081Z,65.20
2023-02-09T17:22:51.594Z,65.30
2023-02-09T17:25:19.451Z,65.90
2023-02-09T17:27:42.980Z,65.80
2023-02-09T17:30:08.543Z,67.30
2023-02-09T17:32:31.754Z,67.20
2023-02-09T17:34:55.535Z,67.10
2023-02-09T17:37:20.379Z,66.20
2023-02-09T17:39:43.840Z,67.10
2023-02-09T17:42:07.366Z,66.10
2023-02-09T17:44:45.699Z,66.10
2023-02-09T17:47:14.466Z,66.50
2023-02-09T17:49:37.691Z,65.40
2023-02-09T17:52:00.938Z,65.80
2023-02-09T17:54:25.724Z,65.10
2023-02-09T17:56:49.310Z,64.70
2023-02-09T17:59:14.843Z,64.60
2023-02-09T18:01:42.111Z,64.10
2023-02-09T18:04:06.072Z,64.20
2023-02-09T18:06:35.078Z,64.10
2023-02-09T18:08:58.443Z,64.00
2023-02-09T18:11:42.764Z,63.80
2023-02-09T18:14:06.149Z,63.30
2023-02-09T18:16:29.575Z,63.90
2023-02-09T18:18:52.858Z,63.80
2023-02-09T18:21:16.236Z,64.90
2023-02-09T18:23:41.095Z,64.30
2023-02-09T18:26:06.293Z,64.40
2023-02-09T18:28:31.057Z,64.50
2023-02-09T18:30:54.406Z,64.60
2023-02-09T18:33:17.840Z,64.70
2023-02-09T18:35:44.607Z,64.50
2023-02-09T18:38:11.518Z,64.50
2023-02-09T18:40:35.184Z,64.60
2023-02-09T18:42:58.548Z,64.20
2023-02-09T18:45:24.132Z,65.00
2023-02-09T18:47:48.467Z,65.10
2023-02-09T18:50:13.300Z,65.40
2023-02-09T18:52:36.519Z,65.70
2023-02-09T18:54:59.866Z,65.90
2023-02-09T18:57:23.161Z,66.20
2023-02-09T18:59:47.924Z,66.50
2023-02-09T19:02:14.496Z,66.80
2023-02-09T19:04:37.725Z,66.90
2023-02-09T19:07:02.247Z,67.50
2023-02-09T19:09:25.682Z,68.20
2023-02-09T19:11:48.957Z,68.10
2023-02-09T19:14:29.660Z,68.70
2023-02-09T19:16:53.063Z,68.90
2023-02-09T19:19:19.095Z,69.40
2023-02-09T19:21:42.391Z,69.40
2023-02-09T19:24:06.153Z,69.20
2023-02-09T19:26:29.716Z,69.60
2023-02-09T19:28:52.987Z,69.40
2023-02-09T19:31:19.620Z,69.70
2023-02-09T19:33:43.000Z,69.90
2023-02-09T19:36:09.139Z,70.10
2023-02-09T19:38:32.814Z,70.30
2023-02-09T19:41:09.868Z,70.30
2023-02-09T19:43:33.633Z,70.20
2023-02-09T19:45:57.488Z,70.60
2023-02-09T19:48:20.763Z,70.30
2023-02-09T19:50:44.226Z,70.20
2023-02-09T19:53:08.985Z,70.20
2023-02-09T19:55:32.514Z,70.20
2023-02-09T19:57:55.947Z,70.40
2023-02-09T20:00:20.037Z,70.40
2023-02-09T20:02:43.957Z,70.70
2023-02-09T20:05:08.526Z,70.00
2023-02-09T20:07:31.750Z,70.20
2023-02-09T20:09:58.155Z,70.20
2023-02-09T20:12:22.786Z,70.60
2023-02-09T20:14:46.463Z,70.80
2023-02-09T20:17:09.753Z,70.50
2023-02-09T20:19:36.102Z,70.10
2023-02-09T20:21:59.413Z,70.40
2023-02-09T20:24:24.017Z,70.40
2023-02-09T20:26:48.701Z,70.90
2023-02-09T20:29:12.267Z,70.50
2023-02-09T20:31:38.488Z,70.70
2023-02-09T20:34:05.191Z,70.90
2023-02-09T20:36:28.476Z,70.70
2023-02-09T20:38:52.024Z,70.90
2023-02-09T20:41:18.461Z,71.30
2023-02-09T20:44:01.208Z,71.20
2023-02-09T20:46:56.083Z,71.30
2023-02-09T20:49:20.118Z,71.30
2023-02-09T20:51:44.644Z,71.30
2023-02-09T20:54:08.314Z,71.50
2023-02-09T20:56:32.339Z,71.80
2023-02-09T20:58:57.086Z,71.80
2023-02-09T21:01:23.161Z,72.00
2023-02-09T21:03:46.532Z,72.20
2023-02-09T21:06:10.145Z,72.40
2023-02-09T21:08:33.574Z,72.60
2023-02-09T21:10:58.055Z,72.70
2023-02-09T21:13:21.492Z,73.10
2023-02-09T21:15:46.221Z,74.30
2023-02-09T21:18:09.973Z,74.50
2023-02-09T21:20:33.856Z,74.80
2023-02-09T21:22:57.405Z,75.00
2023-02-09T21:25:20.792Z,75.00
2023-02-09T21:27:43.992Z,75.80
2023-02-09T21:30:08.098Z,75.40
2023-02-09T21:32:34.901Z,75.60
2023-02-09T21:34:58.179Z,75.90
2023-02-09T21:37:22.799Z,76.00
2023-02-09T21:39:46.149Z,76.30
2023-02-09T21:42:28.737Z,76.10
2023-02-09T21:44:54.058Z,76.20
2023-02-09T21:47:17.462Z,76.10
2023-02-09T21:49:42.283Z,76.00
2023-02-09T21:52:05.901Z,76.20
2023-02-09T21:54:33.204Z,76.30
2023-02-09T21:56:56.510Z,76.70
2023-02-09T21:59:20.081Z,76.50
2023-02-09T22:01:43.590Z,76.50
2023-02-09T22:04:06.998Z,76.50
2023-02-09T22:06:32.432Z,76.40
2023-02-09T22:08:55.766Z,76.40
2023-02-09T22:11:19.081Z,76.50
2023-02-09T22:13:42.416Z,76.50
2023-02-09T22:16:08.166Z,76.60
2023-02-09T22:18:31.501Z,76.60
2023-02-09T22:20:55.178Z,76.60
2023-02-09T22:23:20.739Z,76.80
2023-02-09T22:25:44.048Z,76.80
2023-02-09T22:28:07.758Z,76.90
2023-02-09T22:30:31.152Z,77.40
2023-02-09T22:32:54.983Z,77.70
2023-02-09T22:35:18.537Z,77.90
2023-02-09T22:37:41.887Z,78.20
2023-02-09T22:40:07.278Z,78.40
2023-02-09T22:42:30.510Z,78.50
2023-02-09T22:44:53.783Z,78.50
2023-02-09T22:47:17.088Z,78.80
2023-02-09T22:49:40.408Z,78.90
2023-02-09T22:52:03.829Z,79.20
2023-02-09T22:54:27.082Z,79.50
2023-02-09T22:56:52.008Z,79.40
2023-02-09T22:59:16.112Z,80.30
2023-02-09T23:01:39.651Z,80.10
2023-02-09T23:04:03.557Z,80.20
2023-02-09T23:06:29.983Z,80.60
2023-02-09T23:08:55.023Z,81.10
2023-02-09T23:11:18.951Z,81.20
2023-02-09T23:13:44.494Z,81.00
2023-02-09T23:16:10.421Z,81.00
2023-02-09T23:18:33.898Z,81.30
2023-02-09T23:20:57.159Z,81.40
2023-02-09T23:23:20.380Z,81.60
2023-02-09T23:25:43.742Z,81.60
2023-02-09T23:28:07.002Z,81.50
2023-02-09T23:30:31.667Z,81.70
2023-02-09T23:32:55.020Z,81.70
2023-02-09T23:35:18.565Z,81.70
2023-02-09T23:37:41.804Z,82.00
2023-02-09T23:40:05.448Z,82.00
2023-02-09T23:42:28.695Z,82.00
2023-02-09T23:44:52.043Z,82.20
2023-02-09T23:47:16.786Z,82.10
2023-02-09T23:49:40.089Z,82.30
2023-02-09T23:52:03.351Z,82.10
2023-02-09T23:54:26.626Z,82.00
2023-02-09T23:56:51.951Z,82.20
2023-02-09T23:59:16.948Z,82.20
